Time;durP1;ratioP1;P1;durP2;ratioP2;P2;SDS_P1;SDS_P2;PMS_P1;PMS_P2;Temp;Humidity;BMP_temperature;BMP_pressure;BME280_temperature;BME280_humidity;BME280_pressure;Samples;Min_cycle;Max_cycle;Signal;HPM_P1;HPM_P2
2024/04/02 00:02:02;;;;;;;;;;;;;;;12.56;78.08;94924.63;108666;1279;124575;-90
2024/04/02 00:04:29;;;;;;;;;;;;;;;12.51;78.17;94912.30;108774;1280;22574;-90
2024/04/02 00:06:56;;;;;;;;;;;;;;;12.47;78.73;94913.52;108568;1280;124967;-89
2024/04/02 00:09:22;;;;;;;;;;;;;;;12.42;79.21;94909.27;108610;1273;22520;-89
2024/04/02 00:11:48;;;;;;;;;;;;;;;12.40;80.08;94907.03;108559;1275;124980;-89
2024/04/02 00:14:15;;;;;;;;;;;;;;;12.36;80.59;94905.85;108637;1280;22533;-89
2024/04/02 00:16:41;;;;;;;;;;;;;;;12.28;80.66;94906.73;108680;1280;24219;-90
2024/04/02 00:19:08;;;;;;;;;;;;;;;12.22;81.05;94908.59;108567;1280;124862;-89
2024/04/02 00:21:35;;;;;;;;;;;;;;;12.16;81.63;94904.36;108743;1280;22500;-89
2024/04/02 00:24:02;;;;;;;;;;;;;;;12.09;81.80;94910.89;108685;1272;124921;-90
2024/04/02 00:26:28;;;;;;;;;;;;;;;12.04;82.57;94908.27;108651;1272;22518;-90
2024/04/02 00:28:55;;;;;;;;;;;;;;;12.01;83.26;94905.33;108620;1272;23933;-89
2024/04/02 00:31:21;;;;;;;;;;;;;;;11.91;84.20;94904.74;108603;1280;124797;-88
2024/04/02 00:33:48;;;;;;;;;;;;;;;11.79;84.17;94907.01;108767;1266;22490;-90
2024/04/02 00:36:14;;;;;;;;;;;;;;;11.75;84.85;94906.95;108528;1273;125012;-89
2024/04/02 00:38:41;;;;;;;;;;;;;;;11.71;85.87;94899.73;108721;1280;22567;-89
2024/04/02 00:41:07;;;;;;;;;;;;;;;11.62;85.89;94894.48;108687;1278;22534;-90
2024/04/02 00:43:33;;;;;;;;;;;;;;;11.57;86.48;94894.81;108618;1280;124695;-88
2024/04/02 00:46:01;;;;;;;;;;;;;;;11.54;87.84;94890.11;108588;1273;22534;-90
2024/04/02 00:48:27;;;;;;;;;;;;;;;11.47;88.16;94901.11;108600;1280;124915;-90
2024/04/02 00:50:54;;;;;;;;;;;;;;;11.41;88.90;94910.16;108693;1275;22564;-89
2024/04/02 00:53:21;;;;;;;;;;;;;;;11.35;89.67;94907.95;108583;1280;22585;-89
2024/04/02 00:55:47;;;;;;;;;;;;;;;11.24;90.82;94906.21;108607;1275;124796;-89
2024/04/02 00:58:17;;;;;;;;;;;;;;;11.10;90.61;94910.80;108610;1280;22519;-90
2024/04/02 01:00:43;;;;;;;;;;;;;;;11.01;91.03;94929.58;108463;1280;124833;-89
2024/04/02 01:03:10;;;;;;;;;;;;;;;10.93;91.83;94938.84;108622;1280;22500;-90
2024/04/02 01:05:38;;;;;;;;;;;;;;;10.88;91.76;94938.05;108700;1275;22640;-90
2024/04/02 01:08:04;;;;;;;;;;;;;;;10.79;93.09;94937.21;108677;1275;124802;-89
2024/04/02 01:10:31;;;;;;;;;;;;;;;10.66;92.97;94937.52;108657;1280;22596;-89
2024/04/02 01:12:58;;;;;;;;;;;;;;;10.58;93.74;94943.36;108623;1275;124952;-90
2024/04/02 01:15:24;;;;;;;;;;;;;;;10.52;94.33;94940.38;108678;1280;22610;-89
2024/04/02 01:17:51;;;;;;;;;;;;;;;10.48;95.10;94937.06;108642;1279;125170;-89
2024/04/02 01:20:17;;;;;;;;;;;;;;;10.45;96.44;94940.10;108634;1279;24351;-89
2024/04/02 01:22:43;;;;;;;;;;;;;;;10.39;96.10;94931.16;108812;1279;22665;-89
2024/04/02 01:25:10;;;;;;;;;;;;;;;10.32;97.21;94932.52;108705;1275;124893;-89
2024/04/02 01:27:36;;;;;;;;;;;;;;;10.27;97.14;94929.34;108774;1269;25351;-89
2024/04/02 01:30:03;;;;;;;;;;;;;;;10.24;97.87;94920.77;108573;1280;124925;-89
2024/04/02 01:32:29;;;;;;;;;;;;;;;10.19;97.53;94915.19;108697;1279;22566;-90
2024/04/02 01:34:56;;;;;;;;;;;;;;;10.15;98.03;94920.08;108591;1280;22643;-89
2024/04/02 01:37:22;;;;;;;;;;;;;;;10.11;98.42;94925.86;108637;1275;124755;-89
2024/04/02 01:39:49;;;;;;;;;;;;;;;10.07;98.87;94926.88;108815;1280;22590;-89
2024/04/02 01:42:15;;;;;;;;;;;;;;;10.02;99.03;94931.88;108491;1280;125141;-89
2024/04/02 01:44:41;;;;;;;;;;;;;;;9.96;99.58;94933.19;108741;1275;22551;-88
2024/04/02 01:47:08;;;;;;;;;;;;;;;9.90;99.60;94931.58;108780;1280;22496;-88
2024/04/02 01:49:34;;;;;;;;;;;;;;;9.87;99.95;94927.55;108439;1280;124573;-88
2024/04/02 01:52:01;;;;;;;;;;;;;;;9.84;100.00;94929.13;108551;1272;22635;-88
2024/04/02 01:54:27;;;;;;;;;;;;;;;9.79;100.00;94929.17;108527;1280;125586;-89
2024/04/02 01:56:53;;;;;;;;;;;;;;;9.75;100.00;94932.67;108693;1280;24222;-88
2024/04/02 01:59:20;;;;;;;;;;;;;;;9.74;100.00;94942.56;108621;1280;23246;-88
2024/04/02 02:01:46;;;;;;;;;;;;;;;9.70;100.00;94953.94;108509;1280;124741;-89
2024/04/02 02:04:13;;;;;;;;;;;;;;;9.66;100.00;94953.80;108800;1268;22545;-89
2024/04/02 02:06:40;;;;;;;;;;;;;;;9.58;100.00;94956.00;108552;1280;125244;-89
2024/04/02 02:09:07;;;;;;;;;;;;;;;9.50;100.00;94963.17;108615;1278;22580;-89
2024/04/02 02:11:34;;;;;;;;;;;;;;;9.45;100.00;94959.21;108647;1280;25235;-88
2024/04/02 02:14:00;;;;;;;;;;;;;;;9.43;100.00;94962.24;108519;1280;124613;-88
2024/04/02 02:16:26;;;;;;;;;;;;;;;9.41;100.00;94956.30;108594;1280;22557;-89
2024/04/02 02:18:56;;;;;;;;;;;;;;;9.40;100.00;94948.10;108595;1280;124896;-88
2024/04/02 02:21:23;;;;;;;;;;;;;;;9.40;100.00;94944.35;108756;1281;22519;-88
2024/04/02 02:23:50;;;;;;;;;;;;;;;9.38;100.00;94941.18;108678;1262;125025;-88
2024/04/02 02:26:19;;;;;;;;;;;;;;;9.37;100.00;94941.27;108587;1280;22559;-88
2024/04/02 02:28:45;;;;;;;;;;;;;;;9.38;100.00;94944.92;108690;1275;22502;-89
2024/04/02 02:31:12;;;;;;;;;;;;;;;9.36;100.00;94944.50;108519;1280;124857;-89
2024/04/02 02:33:39;;;;;;;;;;;;;;;9.32;100.00;94945.45;108638;1275;22513;-89
2024/04/02 02:36:05;;;;;;;;;;;;;;;9.25;100.00;94947.58;108713;1269;125416;-88
2024/04/02 02:38:32;;;;;;;;;;;;;;;9.19;100.00;94942.84;108807;1272;22524;-89
2024/04/02 02:41:01;;;;;;;;;;;;;;;9.16;100.00;94939.88;108704;1273;23325;-88
2024/04/02 02:43:28;;;;;;;;;;;;;;;9.13;100.00;94941.14;108552;1281;124607;-89
2024/04/02 02:45:55;;;;;;;;;;;;;;;9.11;100.00;94942.05;108660;1280;25349;-89
2024/04/02 02:48:22;;;;;;;;;;;;;;;9.08;100.00;94947.16;108588;1275;124926;-88
2024/04/02 02:50:48;;;;;;;;;;;;;;;9.07;100.00;94946.20;108721;1275;22523;-89
2024/04/02 02:53:14;;;;;;;;;;;;;;;9.09;100.00;94949.75;108847;1279;22506;-89
2024/04/02 02:55:41;;;;;;;;;;;;;;;9.08;100.00;94948.88;108614;1280;124637;-89
2024/04/02 02:58:07;;;;;;;;;;;;;;;9.05;100.00;94948.42;108679;1265;23223;-90
2024/04/02 03:00:37;;;;;;;;;;;;;;;9.04;100.00;94949.41;108589;1278;124654;-89
2024/04/02 03:03:04;;;;;;;;;;;;;;;9.02;100.00;94948.75;108642;1275;22512;-89
2024/04/02 03:05:31;;;;;;;;;;;;;;;9.00;100.00;94950.91;108668;1280;22604;-89
2024/04/02 03:07:57;;;;;;;;;;;;;;;8.97;100.00;94943.77;108506;1281;124439;-88
2024/04/02 03:10:24;;;;;;;;;;;;;;;8.94;100.00;94942.73;108681;1281;24353;-89
2024/04/02 03:12:50;;;;;;;;;;;;;;;8.92;100.00;94934.32;108544;1280;124672;-89
2024/04/02 03:15:17;;;;;;;;;;;;;;;8.89;100.00;94939.88;108782;1280;22546;-88
2024/04/02 03:17:43;;;;;;;;;;;;;;;8.86;100.00;94940.77;108682;1275;124691;-89
2024/04/02 03:20:10;;;;;;;;;;;;;;;8.86;100.00;94933.68;108766;1275;23085;-89
2024/04/02 03:22:36;;;;;;;;;;;;;;;8.83;100.00;94925.89;108738;1280;22977;-89
2024/04/02 03:25:03;;;;;;;;;;;;;;;8.79;100.00;94918.45;108687;1275;124814;-89
2024/04/02 03:27:30;;;;;;;;;;;;;;;8.77;100.00;94925.42;108778;1274;22482;-89
2024/04/02 03:29:56;;;;;;;;;;;;;;;8.71;100.00;94926.05;108687;1273;124838;-89
2024/04/02 03:32:22;;;;;;;;;;;;;;;8.68;100.00;94927.94;108632;1278;22510;-89
2024/04/02 03:34:49;;;;;;;;;;;;;;;8.66;100.00;94937.70;108756;1275;22587;-89
2024/04/02 03:37:15;;;;;;;;;;;;;;;8.67;100.00;94937.50;108570;1280;124560;-88
2024/04/02 03:39:41;;;;;;;;;;;;;;;8.63;100.00;94939.27;108772;1280;23323;-89
2024/04/02 03:42:08;;;;;;;;;;;;;;;8.58;100.00;94935.20;108598;1280;125052;-89
2024/04/02 03:44:35;;;;;;;;;;;;;;;8.54;100.00;94940.29;108642;1275;22506;-88
2024/04/02 03:47:01;;;;;;;;;;;;;;;8.54;100.00;94941.80;108620;1280;22525;-88
2024/04/02 03:49:27;;;;;;;;;;;;;;;8.51;100.00;94941.23;108593;1280;125162;-89
2024/04/02 03:51:54;;;;;;;;;;;;;;;8.49;100.00;94952.50;108685;1280;22505;-88
2024/04/02 03:54:20;;;;;;;;;;;;;;;8.43;100.00;94959.11;108543;1280;124846;-89
2024/04/02 03:56:47;;;;;;;;;;;;;;;8.39;100.00;94966.38;108694;1269;26416;-88
2024/04/02 03:59:13;;;;;;;;;;;;;;;8.36;100.00;94963.48;108692;1271;23094;-88
2024/04/02 04:01:39;;;;;;;;;;;;;;;8.37;100.00;94956.10;108605;1274;124647;-89
2024/04/02 04:04:06;;;;;;;;;;;;;;;8.36;100.00;94949.81;108613;1270;24486;-89
2024/04/02 04:06:33;;;;;;;;;;;;;;;8.31;100.00;94957.92;108561;1280;124581;-89
2024/04/02 04:09:00;;;;;;;;;;;;;;;8.34;100.00;94968.84;108600;1280;26631;-89
2024/04/02 04:11:26;;;;;;;;;;;;;;;8.36;100.00;94972.36;108654;1280;25189;-88
2024/04/02 04:13:53;;;;;;;;;;;;;;;8.36;100.00;94972.48;108517;1281;124768;-89
2024/04/02 04:16:19;;;;;;;;;;;;;;;8.38;100.00;94976.36;108653;1280;22518;-89
2024/04/02 04:18:45;;;;;;;;;;;;;;;8.37;100.00;94987.68;108749;1277;124694;-89
2024/04/02 04:21:12;;;;;;;;;;;;;;;8.36;100.00;94988.64;108750;1280;22534;-89
2024/04/02 04:23:38;;;;;;;;;;;;;;;8.34;100.00;95000.34;108620;1279;24011;-89
2024/04/02 04:26:07;;;;;;;;;;;;;;;8.29;100.00;95009.27;108652;1277;125101;-88
2024/04/02 04:28:33;;;;;;;;;;;;;;;8.22;100.00;95009.04;108696;1280;22505;-89
2024/04/02 04:31:00;;;;;;;;;;;;;;;8.14;100.00;95007.14;108590;1280;124663;-89
2024/04/02 04:33:27;;;;;;;;;;;;;;;8.10;100.00;95005.52;108608;1280;22667;-89
2024/04/02 04:35:53;;;;;;;;;;;;;;;8.07;100.00;95005.73;108528;1275;124821;-88
2024/04/02 04:38:21;;;;;;;;;;;;;;;8.02;100.00;95010.77;108653;1275;22515;-88
2024/04/02 04:40:48;;;;;;;;;;;;;;;8.00;100.00;95006.23;108633;1280;22510;-89
2024/04/02 04:43:15;;;;;;;;;;;;;;;8.00;100.00;94997.36;108695;1280;125025;-89
2024/04/02 04:45:49;;;;;;;;;;;;;;;8.05;100.00;94992.65;108546;1277;22520;-88
2024/04/02 04:48:15;;;;;;;;;;;;;;;8.06;100.00;94988.47;108532;1279;124969;-88
2024/04/02 04:50:42;;;;;;;;;;;;;;;8.05;100.00;94990.34;108744;1280;22500;-89
2024/04/02 04:53:09;;;;;;;;;;;;;;;8.02;100.00;94980.63;108717;1280;22515;-89
2024/04/02 04:55:35;;;;;;;;;;;;;;;8.02;100.00;94990.74;108503;1273;124910;-88
2024/04/02 04:58:02;;;;;;;;;;;;;;;7.97;100.00;94989.86;108619;1279;22509;-88
2024/04/02 05:00:29;;;;;;;;;;;;;;;7.91;100.00;94989.27;108544;1280;124601;-89
2024/04/02 05:02:55;;;;;;;;;;;;;;;7.88;100.00;95001.32;108575;1274;22622;-88
2024/04/02 05:05:22;;;;;;;;;;;;;;;7.88;100.00;94997.90;108811;1280;22528;-88
2024/04/02 05:07:55;;;;;;;;;;;;;;;7.87;100.00;95006.38;108540;1278;124831;-88
2024/04/02 05:10:23;;;;;;;;;;;;;;;7.84;100.00;95012.71;108651;1275;22736;-89
2024/04/02 05:12:49;;;;;;;;;;;;;;;7.84;100.00;95011.84;108508;1280;124640;-89
2024/04/02 05:15:16;;;;;;;;;;;;;;;7.83;100.00;95014.10;108676;1280;22666;-88
2024/04/02 05:17:42;;;;;;;;;;;;;;;7.78;100.00;95018.05;108542;1278;124712;-89
2024/04/02 05:20:09;;;;;;;;;;;;;;;7.74;100.00;95020.67;108859;1279;22505;-89
2024/04/02 05:22:36;;;;;;;;;;;;;;;7.73;100.00;95031.90;108668;1273;22497;-88
2024/04/02 05:25:03;;;;;;;;;;;;;;;7.72;100.00;95035.60;108506;1271;124566;-89
2024/04/02 05:27:30;;;;;;;;;;;;;;;7.74;100.00;95035.83;108642;1278;22517;-89
2024/04/02 05:29:56;;;;;;;;;;;;;;;7.77;100.00;95038.30;108614;1278;124682;-89
2024/04/02 05:32:23;;;;;;;;;;;;;;;7.77;100.00;95046.10;108821;1269;23220;-89
2024/04/02 05:34:49;;;;;;;;;;;;;;;7.79;100.00;95052.47;108741;1278;22549;-89
2024/04/02 05:37:15;;;;;;;;;;;;;;;7.78;100.00;95048.69;108583;1278;124895;-89
2024/04/02 05:39:48;;;;;;;;;;;;;;;7.75;100.00;95050.76;108635;1272;22576;-89
2024/04/02 05:42:15;;;;;;;;;;;;;;;7.77;100.00;95048.73;108668;1262;124808;-88
2024/04/02 05:44:42;;;;;;;;;;;;;;;7.77;100.00;95048.73;108658;1280;22557;-89
2024/04/02 05:47:08;;;;;;;;;;;;;;;7.74;100.00;95049.73;108640;1280;22602;-89
2024/04/02 05:49:35;;;;;;;;;;;;;;;7.72;100.00;95049.20;108553;1280;124735;-88
2024/04/02 05:52:01;;;;;;;;;;;;;;;7.70;100.00;95053.38;108596;1280;22609;-89
2024/04/02 05:54:28;;;;;;;;;;;;;;;7.67;100.00;95059.86;108523;1280;124622;-89
2024/04/02 05:56:54;;;;;;;;;;;;;;;7.65;100.00;95058.10;108648;1280;22538;-87
2024/04/02 05:59:21;;;;;;;;;;;;;;;7.62;100.00;95059.04;108650;1280;23826;-89
2024/04/02 06:01:47;;;;;;;;;;;;;;;7.59;100.00;95054.42;108546;1280;124541;-88
2024/04/02 06:04:14;;;;;;;;;;;;;;;7.59;100.00;95055.89;108624;1280;22549;-89
2024/04/02 06:06:41;;;;;;;;;;;;;;;7.59;100.00;95061.17;108657;1280;124680;-89
2024/04/02 06:09:07;;;;;;;;;;;;;;;7.59;100.00;95065.79;108585;1280;24207;-88
2024/04/02 06:11:34;;;;;;;;;;;;;;;7.56;100.00;95066.30;108610;1280;22618;-88
2024/04/02 06:14:00;;;;;;;;;;;;;;;7.51;100.00;95079.98;108647;1272;124420;-89
2024/04/02 06:16:26;;;;;;;;;;;;;;;7.47;100.00;95079.00;108777;1278;23370;-89
2024/04/02 06:18:53;;;;;;;;;;;;;;;7.42;100.00;95081.20;108696;1280;124602;-89
2024/04/02 06:21:19;;;;;;;;;;;;;;;7.37;100.00;95082.16;108756;1280;23222;-90
2024/04/02 06:23:48;;;;;;;;;;;;;;;7.38;100.00;95087.95;108507;1279;124751;-88
2024/04/02 06:26:17;;;;;;;;;;;;;;;7.38;100.00;95105.09;108629;1280;22521;-88
2024/04/02 06:28:43;;;;;;;;;;;;;;;7.35;100.00;95111.95;108639;1280;23357;-88
2024/04/02 06:31:09;;;;;;;;;;;;;;;7.31;100.00;95120.79;108596;1280;124627;-89
2024/04/02 06:33:36;;;;;;;;;;;;;;;7.29;100.00;95130.36;108733;1278;23222;-89
2024/04/02 06:36:03;;;;;;;;;;;;;;;7.24;100.00;95133.45;108605;1279;125180;-88
2024/04/02 06:38:30;;;;;;;;;;;;;;;7.21;100.00;95137.93;108747;1280;22568;-89
2024/04/02 06:40:56;;;;;;;;;;;;;;;7.18;100.00;95140.74;108653;1278;23223;-89
2024/04/02 06:43:23;;;;;;;;;;;;;;;7.15;100.00;95151.68;108507;1275;124606;-89
2024/04/02 06:45:56;;;;;;;;;;;;;;;7.13;100.00;95157.67;108745;1278;24308;-89
2024/04/02 06:48:22;;;;;;;;;;;;;;;7.08;100.00;95162.88;108566;1278;124790;-88
2024/04/02 06:51:04;;;;;;;;;;;;;;;7.06;100.00;95168.84;108646;1281;22581;-88
2024/04/02 06:53:31;;;;;;;;;;;;;;;7.06;100.00;95171.30;108653;1280;22576;-88
2024/04/02 06:55:58;;;;;;;;;;;;;;;7.05;100.00;95173.88;108697;1273;124365;-88
2024/04/02 06:58:24;;;;;;;;;;;;;;;7.02;100.00;95176.77;108770;1280;22559;-88
2024/04/02 07:00:51;;;;;;;;;;;;;;;7.01;100.00;95180.23;108698;1280;124702;-89
2024/04/02 07:03:18;;;;;;;;;;;;;;;6.99;100.00;95182.05;108845;1256;22496;-89
2024/04/02 07:05:45;;;;;;;;;;;;;;;6.98;100.00;95189.19;108659;1279;124691;-88
2024/04/02 07:08:11;;;;;;;;;;;;;;;6.96;100.00;95187.07;108625;1280;22552;-88
2024/04/02 07:10:38;;;;;;;;;;;;;;;6.91;100.00;95187.28;108876;1280;22574;-89
2024/04/02 07:13:05;;;;;;;;;;;;;;;6.91;100.00;95189.95;108730;1278;124621;-90
2024/04/02 07:15:31;;;;;;;;;;;;;;;6.91;100.00;95194.27;108801;1280;22510;-89
2024/04/02 07:17:57;;;;;;;;;;;;;;;6.87;100.00;95199.34;108548;1280;124736;-89
2024/04/02 07:20:24;;;;;;;;;;;;;;;6.83;100.00;95204.30;108577;1280;22568;-89
2024/04/02 07:22:50;;;;;;;;;;;;;;;6.83;100.00;95209.46;108659;1280;22511;-89
2024/04/02 07:25:17;;;;;;;;;;;;;;;6.83;100.00;95209.20;108654;1280;124523;-89
2024/04/02 07:27:46;;;;;;;;;;;;;;;6.83;100.00;95211.80;108713;1279;22511;-90
2024/04/02 07:30:12;;;;;;;;;;;;;;;6.84;100.00;95222.90;108544;1280;125005;-90
2024/04/02 07:32:39;;;;;;;;;;;;;;;6.86;100.00;95236.91;108609;1275;22578;-89
2024/04/02 07:35:05;;;;;;;;;;;;;;;6.83;100.00;95233.80;108489;1278;23280;-89
2024/04/02 07:37:31;;;;;;;;;;;;;;;6.82;100.00;95242.35;108498;1280;124636;-89
2024/04/02 07:39:58;;;;;;;;;;;;;;;6.82;100.00;95244.13;108612;1280;22536;-89
2024/04/02 07:42:25;;;;;;;;;;;;;;;6.83;100.00;95249.84;108525;1278;124843;-89
2024/04/02 07:44:51;;;;;;;;;;;;;;;6.82;100.00;95252.55;108597;1265;22619;-89
2024/04/02 07:47:17;;;;;;;;;;;;;;;6.79;100.00;95257.54;108659;1281;22537;-88
2024/04/02 07:49:44;;;;;;;;;;;;;;;6.79;100.00;95265.32;108709;1262;124499;-89
2024/04/02 07:52:10;;;;;;;;;;;;;;;6.79;100.00;95266.58;108594;1280;22631;-89
2024/04/02 07:54:37;;;;;;;;;;;;;;;6.78;100.00;95269.12;108567;1280;124708;-89
2024/04/02 07:57:03;;;;;;;;;;;;;;;6.80;100.00;95269.89;108795;1268;22577;-89
2024/04/02 07:59:30;;;;;;;;;;;;;;;6.79;100.00;95269.92;108627;1275;22541;-89
2024/04/02 08:01:56;;;;;;;;;;;;;;;6.81;100.00;95268.90;108501;1280;124599;-89
2024/04/02 08:04:22;;;;;;;;;;;;;;;6.83;100.00;95267.79;108721;1280;26529;-89
2024/04/02 08:06:49;;;;;;;;;;;;;;;6.86;100.00;95270.16;108560;1278;124547;-87
2024/04/02 08:09:16;;;;;;;;;;;;;;;6.89;100.00;95271.02;108647;1279;22526;-89
2024/04/02 08:11:42;;;;;;;;;;;;;;;6.90;100.00;95278.09;108418;1281;124881;-89
2024/04/02 08:14:12;;;;;;;;;;;;;;;6.92;100.00;95275.45;108755;1280;22506;-89
2024/04/02 08:16:38;;;;;;;;;;;;;;;6.96;100.00;95276.23;108788;1279;22586;-89
2024/04/02 08:19:05;;;;;;;;;;;;;;;7.00;100.00;95276.04;108503;1275;124800;-90
2024/04/02 08:21:31;;;;;;;;;;;;;;;7.03;100.00;95278.96;108818;1277;22526;-89
2024/04/02 08:23:57;;;;;;;;;;;;;;;7.04;100.00;95278.30;108710;1278;124800;-88
2024/04/02 08:26:24;;;;;;;;;;;;;;;7.08;100.00;95278.29;108782;1279;22610;-90
2024/04/02 08:28:50;;;;;;;;;;;;;;;7.11;100.00;95280.30;108590;1280;22504;-89
2024/04/02 08:31:16;;;;;;;;;;;;;;;7.14;100.00;95278.12;108600;1269;124648;-90
2024/04/02 08:33:43;;;;;;;;;;;;;;;7.15;100.00;95278.33;108667;1280;22532;-89
2024/04/02 08:36:09;;;;;;;;;;;;;;;7.16;100.00;95281.48;108530;1280;124990;-89
2024/04/02 08:38:35;;;;;;;;;;;;;;;7.18;100.00;95284.38;108707;1280;22678;-89
2024/04/02 08:41:05;;;;;;;;;;;;;;;7.21;100.00;95287.50;108743;1280;24203;-90
2024/04/02 08:43:31;;;;;;;;;;;;;;;7.24;100.00;95286.20;108539;1281;124759;-89
2024/04/02 08:45:58;;;;;;;;;;;;;;;7.25;100.00;95282.98;108604;1280;22605;-89
2024/04/02 08:48:25;;;;;;;;;;;;;;;7.27;100.00;95297.94;108479;1275;124717;-89
2024/04/02 08:50:52;;;;;;;;;;;;;;;7.29;100.00;95309.84;108617;1280;22553;-89
2024/04/02 08:53:18;;;;;;;;;;;;;;;7.29;100.00;95309.56;108659;1280;22593;-89
2024/04/02 08:55:46;;;;;;;;;;;;;;;7.31;100.00;95308.42;108646;1278;124543;-89
2024/04/02 08:58:12;;;;;;;;;;;;;;;7.32;100.00;95309.89;108575;1280;23199;-90
2024/04/02 09:00:39;;;;;;;;;;;;;;;7.34;100.00;95307.95;108572;1278;126879;-90
2024/04/02 09:03:07;;;;;;;;;;;;;;;7.37;100.00;95304.04;108641;1275;22504;-90
2024/04/02 09:05:33;;;;;;;;;;;;;;;7.40;100.00;95299.72;108632;1280;22524;-89
2024/04/02 09:08:01;;;;;;;;;;;;;;;7.44;100.00;95306.30;108635;1275;124476;-89
2024/04/02 09:10:30;;;;;;;;;;;;;;;7.49;100.00;95304.83;108680;1280;22504;-89
2024/04/02 09:12:57;;;;;;;;;;;;;;;7.53;100.00;95306.58;108592;1276;124654;-89
2024/04/02 09:15:23;;;;;;;;;;;;;;;7.56;100.00;95313.42;108715;1280;22545;-89
2024/04/02 09:17:50;;;;;;;;;;;;;;;7.60;100.00;95316.19;108531;1278;124844;-90
2024/04/02 09:20:16;;;;;;;;;;;;;;;7.62;100.00;95319.62;108775;1280;22557;-89
2024/04/02 09:22:43;;;;;;;;;;;;;;;7.65;100.00;95324.77;108648;1276;22529;-89
2024/04/02 09:25:12;;;;;;;;;;;;;;;7.68;100.00;95326.56;108647;1280;124640;-89
2024/04/02 09:27:39;;;;;;;;;;;;;;;7.70;100.00;95328.95;108637;1280;25260;-90
2024/04/02 09:30:06;;;;;;;;;;;;;;;7.68;100.00;95336.78;108560;1280;124707;-89
2024/04/02 09:32:34;;;;;;;;;;;;;;;7.65;100.00;95334.05;108629;1280;22574;-90
2024/04/02 09:35:00;;;;;;;;;;;;;;;7.66;100.00;95337.77;108603;1280;22547;-89
2024/04/02 09:37:36;;;;;;;;;;;;;;;7.67;100.00;95345.30;108500;1281;124574;-89
2024/04/02 09:40:03;;;;;;;;;;;;;;;7.68;100.00;95345.14;108616;1281;25051;-90
2024/04/02 09:42:30;;;;;;;;;;;;;;;7.70;100.00;95349.24;108690;1281;124567;-90
2024/04/02 09:45:00;;;;;;;;;;;;;;;7.72;100.00;95354.54;108765;1273;22538;-89
2024/04/02 09:47:29;;;;;;;;;;;;;;;7.74;100.00;95357.38;108662;1280;23205;-89
2024/04/02 09:49:56;;;;;;;;;;;;;;;7.73;100.00;95358.73;108504;1275;124640;-89
2024/04/02 09:52:25;;;;;;;;;;;;;;;7.75;100.00;95360.96;108636;1281;22631;-89
2024/04/02 09:54:51;;;;;;;;;;;;;;;7.76;100.00;95356.91;108505;1280;124687;-89
2024/04/02 09:57:18;;;;;;;;;;;;;;;7.78;100.00;95361.58;108841;1280;22536;-89
2024/04/02 09:59:44;;;;;;;;;;;;;;;7.80;100.00;95362.14;108523;1279;124704;-89
2024/04/02 10:02:13;;;;;;;;;;;;;;;7.82;100.00;95362.63;108683;1274;22503;-89
2024/04/02 10:04:40;;;;;;;;;;;;;;;7.82;100.00;95361.42;108721;1280;24494;-89
2024/04/02 10:07:19;;;;;;;;;;;;;;;7.83;100.00;95364.77;108591;1279;124731;-89
2024/04/02 10:09:45;;;;;;;;;;;;;;;7.84;100.00;95372.38;108718;1272;24362;-89
2024/04/02 10:12:12;;;;;;;;;;;;;;;7.85;100.00;95371.23;108635;1280;124837;-88
2024/04/02 10:14:38;;;;;;;;;;;;;;;7.87;100.00;95370.12;108827;1280;23239;-90
2024/04/02 10:17:12;;;;;;;;;;;;;;;7.89;100.00;95376.06;108659;1280;22540;-89
2024/04/02 10:19:42;;;;;;;;;;;;;;;7.90;100.00;95374.04;108543;1281;124600;-89
2024/04/02 10:22:08;;;;;;;;;;;;;;;7.88;100.00;95378.40;108331;1278;332093;-90
2024/04/02 10:24:35;;;;;;;;;;;;;;;7.87;100.00;95375.93;108483;1272;124779;-90
2024/04/02 10:27:03;;;;;;;;;;;;;;;7.88;100.00;95379.44;108833;1280;23330;-90
2024/04/02 10:29:31;;;;;;;;;;;;;;;7.92;100.00;95384.39;108779;1280;22567;-90
2024/04/02 10:31:58;;;;;;;;;;;;;;;7.95;100.00;95385.48;108611;1279;124408;-90
2024/04/02 10:34:24;;;;;;;;;;;;;;;7.98;100.00;95391.09;108659;1280;22561;-89
2024/04/02 10:36:51;;;;;;;;;;;;;;;7.99;100.00;95393.16;108571;1280;124760;-90
2024/04/02 10:39:17;;;;;;;;;;;;;;;8.00;100.00;95395.00;108794;1280;25778;-89
2024/04/02 10:41:45;;;;;;;;;;;;;;;8.00;100.00;95397.55;108517;1272;124726;-89
2024/04/02 10:44:12;;;;;;;;;;;;;;;8.00;100.00;95406.90;108628;1281;22547;-90
2024/04/02 10:46:39;;;;;;;;;;;;;;;8.00;100.00;95407.77;108653;1281;22682;-88
2024/04/02 10:49:06;;;;;;;;;;;;;;;7.99;100.00;95418.44;108542;1281;124750;-89
2024/04/02 10:51:32;;;;;;;;;;;;;;;7.97;100.00;95415.43;108612;1280;22634;-89
2024/04/02 10:53:59;;;;;;;;;;;;;;;7.94;100.00;95405.84;108598;1274;124695;-89
2024/04/02 10:56:26;;;;;;;;;;;;;;;7.93;100.00;95407.64;108649;1281;26466;-88
2024/04/02 10:58:53;;;;;;;;;;;;;;;7.95;100.00;95410.27;108647;1280;22568;-88
2024/04/02 11:01:20;;;;;;;;;;;;;;;7.95;100.00;95411.98;108491;1274;124789;-89
2024/04/02 11:03:50;;;;;;;;;;;;;;;7.96;100.00;95415.53;108706;1271;24621;-89
2024/04/02 11:06:17;;;;;;;;;;;;;;;7.99;100.00;95419.20;108540;1280;124750;-89
2024/04/02 11:08:44;;;;;;;;;;;;;;;8.03;100.00;95417.27;108612;1281;22576;-89
2024/04/02 11:11:23;;;;;;;;;;;;;;;8.07;100.00;95422.86;108598;1281;22574;-89
2024/04/02 11:13:49;;;;;;;;;;;;;;;8.10;100.00;95420.20;108514;1281;124530;-89
2024/04/02 11:16:16;;;;;;;;;;;;;;;8.13;100.00;95423.94;108690;1281;22623;-89
2024/04/02 11:18:44;;;;;;;;;;;;;;;8.15;100.00;95431.27;108694;1280;124545;-89
2024/04/02 11:21:14;;;;;;;;;;;;;;;8.18;100.00;95433.92;108627;1280;22612;-90
2024/04/02 11:26:26;;;;;;;;;;;;;;;8.29;100.00;95435.14;108768;1280;24220;-89
2024/04/02 11:29:02;;;;;;;;;;;;;;;8.31;100.00;95437.59;108654;1280;26479;-89
2024/04/02 11:31:28;;;;;;;;;;;;;;;8.35;100.00;95444.92;108499;1276;124608;-90
2024/04/02 11:33:55;;;;;;;;;;;;;;;8.39;100.00;95445.34;108738;1281;22537;-90
2024/04/02 11:36:21;;;;;;;;;;;;;;;8.42;100.00;95450.73;108571;1280;124746;-90
2024/04/02 11:38:48;;;;;;;;;;;;;;;8.46;100.00;95451.63;108698;1281;22515;-89
2024/04/02 11:41:14;;;;;;;;;;;;;;;8.49;100.00;95451.73;108706;1277;22952;-89
2024/04/02 11:43:41;;;;;;;;;;;;;;;8.56;100.00;95455.79;108701;1280;124741;-90
2024/04/02 11:46:07;;;;;;;;;;;;;;;8.61;100.00;95460.27;108707;1280;22511;-90
2024/04/02 11:48:33;;;;;;;;;;;;;;;8.69;100.00;95453.94;108622;1279;124610;-90
2024/04/02 11:51:00;;;;;;;;;;;;;;;8.76;100.00;95454.13;108720;1279;22560;-90
2024/04/02 11:53:26;;;;;;;;;;;;;;;8.80;100.00;95451.45;108672;1281;25304;-90
2024/04/02 11:55:53;;;;;;;;;;;;;;;8.84;100.00;95452.02;108681;1281;124640;-88
2024/04/02 12:01:04;;;;;;;;;;;;;;;8.93;100.00;95453.31;108604;1280;124668;-90
2024/04/02 12:03:31;;;;;;;;;;;;;;;8.99;100.00;95455.83;108673;1280;24818;-90
2024/04/02 12:05:58;;;;;;;;;;;;;;;9.05;100.00;95452.72;108734;1279;125605;-89
2024/04/02 12:08:24;;;;;;;;;;;;;;;9.11;100.00;95453.95;108585;1273;22504;-90
2024/04/02 12:10:51;;;;;;;;;;;;;;;9.19;100.00;95452.29;108671;1279;22557;-88
2024/04/02 12:13:17;;;;;;;;;;;;;;;9.25;100.00;95453.50;108533;1280;124590;-89
2024/04/02 12:15:43;;;;;;;;;;;;;;;9.33;100.00;95446.98;108784;1280;22527;-89
2024/04/02 12:18:10;;;;;;;;;;;;;;;9.39;100.00;95445.35;108516;1274;125298;-89
2024/04/02 12:20:36;;;;;;;;;;;;;;;9.46;100.00;95442.87;108731;1281;22539;-88
2024/04/02 12:23:04;;;;;;;;;;;;;;;9.51;100.00;95445.38;108686;1280;22626;-89
2024/04/02 12:25:30;;;;;;;;;;;;;;;9.56;100.00;95445.85;108671;1280;124680;-89
2024/04/02 12:27:57;;;;;;;;;;;;;;;9.63;100.00;95445.80;108744;1280;26530;-89
2024/04/02 12:30:23;;;;;;;;;;;;;;;9.71;100.00;95445.76;108629;1274;124936;-89
2024/04/02 12:32:50;;;;;;;;;;;;;;;9.79;100.00;95447.92;108707;1280;24076;-89
2024/04/02 12:35:16;;;;;;;;;;;;;;;9.87;100.00;95451.50;108746;1270;24399;-90
2024/04/02 12:37:43;;;;;;;;;;;;;;;9.96;100.00;95453.32;108564;1281;124946;-90